Sand Key, FL current weather conditions

sailwx.info

Wind from 350 at 22 knots gusting 25

Air temperature 22.3° C
Dewpoint 12.5° C

Last reported at 2015-Mar-28 09:50 UTC.
Time now 2015-Mar-28 11:04 UTC

Location: N 24°28' W 081°53'.
View on Google Maps.

See reports from other nearby stations

  
Tides and Currents Weather Stations Pressure Air Temp Water Temp Dewpoint Dewpoint Depression Visibility Wind Speed Wind Dir Waves Ship Positions
date/time (UTC)wind fromknots sea level pressurealtimeterstation pressurevisibilityair tempwater tempwave heightnotes
2015-Mar-28 09:50 350 22 gusting 25 22.3
2015-Mar-28 08:50 340 20 gusting 22 22.5
2015-Mar-28 07:50 340 19 gusting 22 23.0
2015-Mar-28 06:50 320 17 gusting 20 23.7
2015-Mar-28 05:50 310 22 gusting 26 23.5
2015-Mar-28 04:50 290 13 gusting 20 23.7
2015-Mar-28 03:50 270 12 gusting 18 23.8
2015-Mar-28 02:50 290 32 gusting 36 24.2
2015-Mar-28 01:50 300 27 gusting 33 24.0
2015-Mar-28 00:50 300 30 gusting 38 21.2
2015-Mar-27 22:50 280 6 gusting 8 24.8
2015-Mar-27 21:50 260 12 gusting 15 26.2
2015-Mar-27 20:50 240 9 gusting 10 26.2
2015-Mar-27 19:50 220 9 gusting 11 26.2
2015-Mar-27 18:50 230 12 gusting 13 26.2
2015-Mar-27 17:50 210 13 gusting 15 26.2
2015-Mar-27 16:50 210 12 gusting 13 26.1
2015-Mar-27 15:50 210 9 gusting 10 25.9
2015-Mar-27 14:50 210 10 gusting 11 25.9
2015-Mar-27 13:50 210 9 gusting 11 25.9
2015-Mar-27 12:50 220 6 gusting 7 25.5
2015-Mar-27 11:50 270 7 gusting 8 25.5
2015-Mar-27 10:50 250 9 gusting 10 25.6
2015-Mar-27 09:50 230 12 gusting 13 25.9
2015-Mar-27 08:50 220 13 gusting 15 25.9
2015-Mar-27 07:50 220 13 gusting 15 26.0
2015-Mar-27 06:50 210 12 gusting 13 26.0
2015-Mar-27 05:50 210 13 gusting 15 26.2
2015-Mar-27 04:50 170 10 gusting 11 26.0
2015-Mar-27 02:50 160 10 gusting 11 26.1
2015-Mar-27 01:50 160 12 gusting 14 26.1
2015-Mar-27 00:50 150 11 gusting 12 25.9